Time;durP1;ratioP1;P1;durP2;ratioP2;P2;SDS_P1;SDS_P2;PMS_P1;PMS_P2;Temp;Humidity;BMP_temperature;BMP_pressure;BME280_temperature;BME280_humidity;BME280_pressure;Samples;Min_cycle;Max_cycle;Signal;HPM_P1;HPM_P2
2022/06/26 00:01:40;;;;;;;1.40;1.40;;;;;;;;;;5073030;28;20197;-79
2022/06/26 00:04:07;;;;;;;1.55;1.30;;;;;;;;;;5074053;28;20267;-79
2022/06/26 00:06:37;;;;;;;1.10;1.10;;;;;;;;;;5073346;28;20236;-78
2022/06/26 00:09:05;;;;;;;1.50;1.40;;;;;;;;;;5074071;28;20220;-80
2022/06/26 00:11:33;;;;;;;1.45;1.35;;;;;;;;;;5073228;28;20227;-80
2022/06/26 00:14:01;;;;;;;1.25;1.15;;;;;;;;;;5073203;28;20227;-80
2022/06/26 00:16:28;;;;;;;1.40;1.30;;;;;;;;;;5073602;28;20291;-78
2022/06/26 00:18:56;;;;;;;1.20;1.10;;;;;;;;;;5073391;28;20280;-79
2022/06/26 00:21:24;;;;;;;1.40;1.30;;;;;;;;;;5073380;28;20204;-78
2022/06/26 00:23:52;;;;;;;1.30;1.30;;;;;;;;;;5073372;28;20311;-79
2022/06/26 00:26:20;;;;;;;1.27;1.15;;;;;;;;;;5073849;28;20240;-79
2022/06/26 00:28:47;;;;;;;1.23;1.20;;;;;;;;;;5073560;28;20346;-79
2022/06/26 00:31:15;;;;;;;1.40;1.30;;;;;;;;;;5073909;28;20239;-79
2022/06/26 00:33:42;;;;;;;1.00;1.00;;;;;;;;;;5072611;28;20307;-79
2022/06/26 00:36:10;;;;;;;0.90;0.90;;;;;;;;;;5071559;28;20243;-80
2022/06/26 00:38:37;;;;;;;1.13;1.05;;;;;;;;;;5073721;28;20193;-79
2022/06/26 00:41:06;;;;;;;1.55;1.45;;;;;;;;;;5073533;28;20631;-79
2022/06/26 00:43:34;;;;;;;1.15;1.10;;;;;;;;;;5072908;28;20267;-77
2022/06/26 00:46:01;;;;;;;1.13;1.13;;;;;;;;;;5071670;28;20237;-79
2022/06/26 00:48:29;;;;;;;1.20;1.20;;;;;;;;;;5073117;28;20220;-79
2022/06/26 00:50:56;;;;;;;1.75;1.65;;;;;;;;;;5072718;28;20224;-77
2022/06/26 00:53:24;;;;;;;1.42;1.33;;;;;;;;;;5073004;28;20255;-79
2022/06/26 00:55:52;;;;;;;2.40;1.40;;;;;;;;;;5073659;28;20232;-79
2022/06/26 00:58:20;;;;;;;1.35;1.30;;;;;;;;;;5073057;28;20645;-79
2022/06/26 01:00:48;;;;;;;1.60;1.50;;;;;;;;;;5072722;28;20288;-80
2022/06/26 01:03:16;;;;;;;1.65;1.55;;;;;;;;;;5072634;28;20258;-78
2022/06/26 01:05:43;;;;;;;1.20;1.20;;;;;;;;;;5076953;28;20211;-78
2022/06/26 01:08:11;;;;;;;1.40;1.30;;;;;;;;;;5077129;28;20627;-79
2022/06/26 01:10:39;;;;;;;1.25;1.23;;;;;;;;;;5077400;28;20201;-80
2022/06/26 01:13:07;;;;;;;1.65;1.35;;;;;;;;;;5076338;28;20571;-79
2022/06/26 01:15:36;;;;;;;1.50;1.40;;;;;;;;;;5077524;28;20208;-79
2022/06/26 01:18:04;;;;;;;1.25;1.25;;;;;;;;;;5077192;28;20287;-79
2022/06/26 01:20:32;;;;;;;2.55;1.40;;;;;;;;;;5077500;28;20205;-79
2022/06/26 01:23:08;;;;;;;1.00;1.00;;;;;;;;;;5075938;28;20205;-78
2022/06/26 01:25:44;;;;;;;1.23;1.20;;;;;;;;;;5077442;28;20763;-77
2022/06/26 01:28:12;;;;;;;1.48;1.38;;;;;;;;;;5076925;28;20224;-78
2022/06/26 01:30:40;;;;;;;1.10;1.10;;;;;;;;;;5076566;28;20228;-78
2022/06/26 01:33:08;;;;;;;1.10;1.10;;;;;;;;;;5076328;28;20205;-78
2022/06/26 01:38:16;;;;;;;1.70;1.60;;;;;;;;;;5092548;28;20242;-76
2022/06/26 01:40:46;;;;;;;2.15;1.83;;;;;;;;;;5095136;28;20204;-76
2022/06/26 01:43:17;;;;;;;1.40;1.30;;;;;;;;;;5094496;28;20204;-76
2022/06/26 01:45:45;;;;;;;2.03;1.92;;;;;;;;;;5093420;28;20231;-76
2022/06/26 01:48:13;;;;;;;1.58;1.48;;;;;;;;;;5095004;28;20650;-76
2022/06/26 01:50:41;;;;;;;1.50;1.40;;;;;;;;;;5094992;28;20231;-77
2022/06/26 01:53:08;;;;;;;1.55;1.48;;;;;;;;;;5084159;28;20211;-76
2022/06/26 01:55:39;;;;;;;1.60;1.50;;;;;;;;;;5094095;28;20406;-76
2022/06/26 01:58:06;;;;;;;1.50;1.40;;;;;;;;;;5094692;28;20207;-77
2022/06/26 02:00:38;;;;;;;1.20;1.20;;;;;;;;;;5094267;28;20284;-76
2022/06/26 02:03:06;;;;;;;1.48;1.38;;;;;;;;;;5094007;28;20200;-76
2022/06/26 02:05:34;;;;;;;1.42;1.38;;;;;;;;;;5094814;28;20660;-76
2022/06/26 02:08:02;;;;;;;1.40;1.40;;;;;;;;;;5094679;28;20669;-76
2022/06/26 02:16:05;;;;;;;2.25;1.50;;;;;;;;;;5094166;28;20595;-76
2022/06/26 02:18:33;;;;;;;1.65;1.40;;;;;;;;;;5094469;28;20739;-77
2022/06/26 02:21:01;;;;;;;1.40;1.30;;;;;;;;;;5094248;28;20715;-76
2022/06/26 02:23:29;;;;;;;1.17;1.17;;;;;;;;;;5093649;28;20195;-77
2022/06/26 02:25:57;;;;;;;1.45;1.35;;;;;;;;;;5094315;28;20231;-76
2022/06/26 02:28:26;;;;;;;1.23;1.20;;;;;;;;;;5094387;28;20676;-76
2022/06/26 02:30:53;;;;;;;1.17;1.10;;;;;;;;;;5094146;28;20256;-76
2022/06/26 02:33:22;;;;;;;1.33;1.25;;;;;;;;;;5093257;28;20231;-76
2022/06/26 02:35:50;;;;;;;1.15;1.15;;;;;;;;;;5094370;28;20603;-76
2022/06/26 02:38:17;;;;;;;1.38;1.27;;;;;;;;;;5094298;28;20200;-76
2022/06/26 02:40:46;;;;;;;1.38;1.30;;;;;;;;;;5093946;28;20326;-77
2022/06/26 02:43:13;;;;;;;1.10;1.10;;;;;;;;;;5093679;28;20204;-76
2022/06/26 02:45:42;;;;;;;1.13;1.13;;;;;;;;;;5091878;28;20220;-76
2022/06/26 02:48:10;;;;;;;1.20;1.20;;;;;;;;;;5093821;28;20299;-76
2022/06/26 02:50:38;;;;;;;1.30;1.30;;;;;;;;;;5094076;28;20518;-77
2022/06/26 02:53:06;;;;;;;1.10;1.10;;;;;;;;;;5075493;28;20279;-76
2022/06/26 02:55:33;;;;;;;1.23;1.23;;;;;;;;;;5073154;28;20602;-76
2022/06/26 02:58:01;;;;;;;1.20;1.20;;;;;;;;;;5073272;28;20232;-77
2022/06/26 03:00:29;;;;;;;1.33;1.30;;;;;;;;;;5073039;28;20232;-77
2022/06/26 03:02:58;;;;;;;1.55;1.45;;;;;;;;;;5073003;28;20228;-76
2022/06/26 03:05:25;;;;;;;1.15;1.15;;;;;;;;;;5073159;28;20708;-76
2022/06/26 03:07:52;;;;;;;1.40;1.30;;;;;;;;;;5072631;28;20236;-76
2022/06/26 03:10:20;;;;;;;1.48;1.38;;;;;;;;;;5072840;28;20220;-77
2022/06/26 03:12:49;;;;;;;1.63;1.52;;;;;;;;;;5072256;28;20288;-76
2022/06/26 03:15:18;;;;;;;2.83;2.20;;;;;;;;;;5073029;28;20204;-75
2022/06/26 03:17:47;;;;;;;1.95;1.85;;;;;;;;;;5072560;28;20275;-77
2022/06/26 03:20:19;;;;;;;2.65;2.45;;;;;;;;;;5073275;28;20640;-76
2022/06/26 03:22:50;;;;;;;2.50;2.30;;;;;;;;;;5072429;28;20205;-76
2022/06/26 03:25:17;;;;;;;2.42;2.22;;;;;;;;;;5073108;28;20223;-76
2022/06/26 03:27:45;;;;;;;2.00;1.90;;;;;;;;;;5071968;28;20201;-76
2022/06/26 03:30:14;;;;;;;2.75;1.75;;;;;;;;;;5072322;28;20671;-77
2022/06/26 03:32:42;;;;;;;2.60;2.40;;;;;;;;;;5072252;28;20205;-76
2022/06/26 03:35:11;;;;;;;2.67;2.40;;;;;;;;;;5072739;28;20291;-76
2022/06/26 03:37:40;;;;;;;2.20;2.10;;;;;;;;;;5072229;28;20212;-76
2022/06/26 03:40:10;;;;;;;2.17;2.08;;;;;;;;;;5072712;28;20236;-77
2022/06/26 03:42:38;;;;;;;2.28;2.17;;;;;;;;;;5071788;28;20240;-76
2022/06/26 03:45:07;;;;;;;2.10;2.00;;;;;;;;;;5069775;28;20200;-75
2022/06/26 03:47:34;;;;;;;2.20;2.10;;;;;;;;;;5070507;28;20292;-77
2022/06/26 03:50:02;;;;;;;1.98;1.80;;;;;;;;;;5072581;28;20316;-77
2022/06/26 03:52:29;;;;;;;2.60;2.40;;;;;;;;;;5072126;28;20295;-76
2022/06/26 03:54:58;;;;;;;2.38;1.90;;;;;;;;;;5072173;28;20205;-76
2022/06/26 03:57:26;;;;;;;1.60;1.50;;;;;;;;;;5072633;28;20256;-76
2022/06/26 03:59:53;;;;;;;1.52;1.42;;;;;;;;;;5071293;28;20465;-77
2022/06/26 04:02:21;;;;;;;1.90;1.80;;;;;;;;;;5071540;28;20295;-77
2022/06/26 04:04:48;;;;;;;1.30;1.30;;;;;;;;;;5072556;28;20209;-76
2022/06/26 04:07:16;;;;;;;1.50;1.40;;;;;;;;;;5071969;28;20316;-75
2022/06/26 04:09:43;;;;;;;1.73;1.63;;;;;;;;;;5072366;28;20250;-77
2022/06/26 04:12:12;;;;;;;1.20;1.20;;;;;;;;;;5071969;28;20243;-76
2022/06/26 04:14:40;;;;;;;1.48;1.40;;;;;;;;;;5072461;28;20236;-77
2022/06/26 04:17:09;;;;;;;1.80;1.70;;;;;;;;;;5072413;28;20601;-77
2022/06/26 04:19:36;;;;;;;2.33;2.13;;;;;;;;;;5072294;28;20582;-76
2022/06/26 04:22:04;;;;;;;2.40;2.30;;;;;;;;;;5071321;28;20212;-77
2022/06/26 04:24:32;;;;;;;2.17;2.08;;;;;;;;;;5072657;28;20292;-77
2022/06/26 04:26:59;;;;;;;2.55;2.35;;;;;;;;;;5072369;28;20272;-76
2022/06/26 04:29:28;;;;;;;2.30;2.10;;;;;;;;;;5072008;28;20236;-77
2022/06/26 04:31:55;;;;;;;2.13;2.00;;;;;;;;;;5071241;28;20254;-77
2022/06/26 04:34:23;;;;;;;1.90;1.80;;;;;;;;;;5071711;28;20287;-77
2022/06/26 04:36:50;;;;;;;2.40;2.30;;;;;;;;;;5072348;28;20320;-75
2022/06/26 04:39:18;;;;;;;2.28;2.13;;;;;;;;;;5074826;28;20201;-77
2022/06/26 04:41:47;;;;;;;1.70;1.70;;;;;;;;;;5075822;28;20200;-77
2022/06/26 04:44:14;;;;;;;1.90;1.80;;;;;;;;;;5076778;28;20297;-76
2022/06/26 04:46:46;;;;;;;1.83;1.73;;;;;;;;;;5075055;28;20688;-77
2022/06/26 04:49:14;;;;;;;2.03;1.92;;;;;;;;;;5076638;28;20287;-77
2022/06/26 04:51:42;;;;;;;2.28;2.17;;;;;;;;;;5075673;28;20232;-77
2022/06/26 04:54:12;;;;;;;1.65;1.55;;;;;;;;;;5076504;28;20236;-76
2022/06/26 04:56:39;;;;;;;3.03;2.72;;;;;;;;;;5076299;28;20307;-77
2022/06/26 04:59:08;;;;;;;2.03;1.92;;;;;;;;;;5075244;28;20232;-76
2022/06/26 05:01:36;;;;;;;1.90;1.80;;;;;;;;;;5075771;28;20284;-75
2022/06/26 05:04:05;;;;;;;1.77;1.67;;;;;;;;;;5076496;28;20292;-77
2022/06/26 05:06:32;;;;;;;8.45;1.95;;;;;;;;;;5075964;28;20670;-77
2022/06/26 05:09:00;;;;;;;2.40;2.20;;;;;;;;;;5075600;28;20295;-77
2022/06/26 05:11:27;;;;;;;2.00;1.90;;;;;;;;;;5075819;28;20248;-76
2022/06/26 05:13:55;;;;;;;2.30;1.80;;;;;;;;;;5077335;28;20280;-77
2022/06/26 05:16:22;;;;;;;2.40;2.20;;;;;;;;;;5076931;28;20312;-76
2022/06/26 05:18:50;;;;;;;2.10;2.00;;;;;;;;;;5077045;28;20288;-76
2022/06/26 05:21:19;;;;;;;2.60;2.15;;;;;;;;;;5075651;28;20233;-75
2022/06/26 05:23:46;;;;;;;2.35;2.17;;;;;;;;;;5074910;28;20201;-76
2022/06/26 05:26:14;;;;;;;1.92;1.70;;;;;;;;;;5074542;28;20225;-76
2022/06/26 05:28:42;;;;;;;2.22;2.13;;;;;;;;;;5074554;28;20688;-76
2022/06/26 05:31:09;;;;;;;1.70;1.60;;;;;;;;;;5074597;28;20228;-76
2022/06/26 05:33:37;;;;;;;1.73;1.63;;;;;;;;;;5073949;28;20201;-77
2022/06/26 05:36:06;;;;;;;2.30;2.10;;;;;;;;;;5074049;28;20239;-77
2022/06/26 05:38:35;;;;;;;1.80;1.70;;;;;;;;;;5074958;28;20220;-77
2022/06/26 05:41:02;;;;;;;1.67;1.60;;;;;;;;;;5075135;28;20299;-77
2022/06/26 05:43:30;;;;;;;1.63;1.52;;;;;;;;;;5074329;28;20239;-77
2022/06/26 05:45:58;;;;;;;3.05;2.38;;;;;;;;;;5074105;28;20225;-77
2022/06/26 05:48:26;;;;;;;2.10;2.00;;;;;;;;;;5074909;28;20232;-77
2022/06/26 05:50:55;;;;;;;2.00;1.90;;;;;;;;;;5073899;28;20208;-77
2022/06/26 05:53:23;;;;;;;2.33;2.20;;;;;;;;;;5074085;28;20200;-78
2022/06/26 05:55:51;;;;;;;2.03;1.80;;;;;;;;;;5074207;28;20250;-77
2022/06/26 05:58:19;;;;;;;2.25;2.05;;;;;;;;;;5074055;28;20296;-77
2022/06/26 06:00:46;;;;;;;1.85;1.75;;;;;;;;;;5073374;28;20643;-77
2022/06/26 06:03:14;;;;;;;2.15;2.00;;;;;;;;;;5073461;28;20251;-77
2022/06/26 06:05:41;;;;;;;3.38;2.50;;;;;;;;;;5074391;28;20271;-77
2022/06/26 06:08:09;;;;;;;2.35;2.15;;;;;;;;;;5074223;28;20244;-78
2022/06/26 06:10:37;;;;;;;3.20;2.92;;;;;;;;;;5074211;28;20288;-77
2022/06/26 06:13:05;;;;;;;1.70;1.60;;;;;;;;;;5072183;28;20342;-77
2022/06/26 06:15:33;;;;;;;1.90;1.80;;;;;;;;;;5074239;28;20253;-77
2022/06/26 06:18:01;;;;;;;2.25;2.10;;;;;;;;;;5074367;28;20197;-77
2022/06/26 06:20:28;;;;;;;1.85;1.75;;;;;;;;;;5074348;28;20229;-77
2022/06/26 06:23:03;;;;;;;1.70;1.60;;;;;;;;;;5073747;28;20584;-77
2022/06/26 06:25:31;;;;;;;2.10;2.00;;;;;;;;;;5074152;28;20331;-77
2022/06/26 06:27:59;;;;;;;2.17;2.08;;;;;;;;;;5073678;28;20201;-77
2022/06/26 06:30:28;;;;;;;1.80;1.70;;;;;;;;;;5074016;28;20292;-77
2022/06/26 06:32:55;;;;;;;1.65;1.55;;;;;;;;;;5073394;28;20316;-77
2022/06/26 06:35:23;;;;;;;1.52;1.42;;;;;;;;;;5073841;28;20355;-77
2022/06/26 06:37:50;;;;;;;1.90;1.80;;;;;;;;;;5073401;28;20251;-77
2022/06/26 06:40:18;;;;;;;1.63;1.52;;;;;;;;;;5073731;28;20233;-78
2022/06/26 06:42:46;;;;;;;2.03;1.92;;;;;;;;;;5072987;28;20203;-77
2022/06/26 06:45:13;;;;;;;2.00;1.90;;;;;;;;;;5073239;28;20287;-78
2022/06/26 06:47:42;;;;;;;2.17;1.70;;;;;;;;;;5073329;28;20209;-77
2022/06/26 06:50:10;;;;;;;2.53;1.70;;;;;;;;;;5073835;28;20596;-76
2022/06/26 06:52:38;;;;;;;1.67;1.58;;;;;;;;;;5072805;28;20655;-78
2022/06/26 06:55:06;;;;;;;3.33;1.98;;;;;;;;;;5073194;28;20297;-77
2022/06/26 06:57:34;;;;;;;1.30;1.30;;;;;;;;;;5072787;28;20207;-77
2022/06/26 07:00:02;;;;;;;1.55;1.52;;;;;;;;;;5073842;28;20212;-77
2022/06/26 07:02:31;;;;;;;2.38;2.28;;;;;;;;;;5073423;28;20568;-77
2022/06/26 07:05:00;;;;;;;2.45;2.28;;;;;;;;;;5074020;28;20307;-77
2022/06/26 07:07:28;;;;;;;2.28;2.17;;;;;;;;;;5073734;28;20232;-77
2022/06/26 07:09:55;;;;;;;1.70;1.60;;;;;;;;;;5073394;28;20295;-77
2022/06/26 07:12:23;;;;;;;1.83;1.73;;;;;;;;;;5072469;28;20220;-77
2022/06/26 07:14:51;;;;;;;1.83;1.73;;;;;;;;;;5073661;28;20673;-77
2022/06/26 07:17:18;;;;;;;2.03;1.90;;;;;;;;;;5073270;28;20719;-77
2022/06/26 07:19:46;;;;;;;1.80;1.70;;;;;;;;;;5073303;28;20712;-77
2022/06/26 07:22:15;;;;;;;2.42;2.17;;;;;;;;;;5071637;28;20243;-77
2022/06/26 07:24:42;;;;;;;2.53;2.03;;;;;;;;;;5075574;28;20229;-77
2022/06/26 07:27:10;;;;;;;1.85;1.75;;;;;;;;;;5072522;28;20315;-78
2022/06/26 07:29:38;;;;;;;1.98;1.88;;;;;;;;;;5073103;28;20304;-78
2022/06/26 07:32:06;;;;;;;1.65;1.55;;;;;;;;;;5072785;28;20225;-79
2022/06/26 07:34:34;;;;;;;2.20;1.95;;;;;;;;;;5072544;28;20208;-78
2022/06/26 07:37:01;;;;;;;2.20;2.05;;;;;;;;;;5090099;23;20300;-83
2022/06/26 07:39:30;;;;;;;2.78;1.88;;;;;;;;;;5084872;28;20221;-83
2022/06/26 07:41:58;;;;;;;2.30;2.20;;;;;;;;;;5084006;28;20254;-83
2022/06/26 07:44:26;;;;;;;1.90;1.80;;;;;;;;;;5084049;28;20261;-84
2022/06/26 07:46:53;;;;;;;1.73;1.63;;;;;;;;;;5083015;28;20623;-84
2022/06/26 07:49:21;;;;;;;1.60;1.50;;;;;;;;;;5083202;28;20213;-83
2022/06/26 07:51:49;;;;;;;2.65;2.45;;;;;;;;;;5106310;23;20224;-85
2022/06/26 07:54:16;;;;;;;1.60;1.50;;;;;;;;;;5090568;28;20304;-84
2022/06/26 07:56:46;;;;;;;1.60;1.50;;;;;;;;;;5075484;28;20226;-84
2022/06/26 07:59:14;;;;;;;1.83;1.73;;;;;;;;;;5061594;28;20280;-84
2022/06/26 08:01:42;;;;;;;1.88;1.77;;;;;;;;;;5057568;28;20248;-83
2022/06/26 08:04:10;;;;;;;2.97;1.65;;;;;;;;;;5058929;28;20201;-84
2022/06/26 08:06:37;;;;;;;1.90;1.80;;;;;;;;;;5058817;28;20244;-84
2022/06/26 08:09:06;;;;;;;1.38;1.38;;;;;;;;;;5058304;28;20288;-84
2022/06/26 08:11:34;;;;;;;1.48;1.42;;;;;;;;;;5059949;28;20573;-84
2022/06/26 08:14:03;;;;;;;2.20;2.05;;;;;;;;;;5058571;28;20666;-84
2022/06/26 08:16:31;;;;;;;1.85;1.63;;;;;;;;;;5059084;28;20246;-84
2022/06/26 08:18:58;;;;;;;1.30;1.30;;;;;;;;;;5058884;28;20205;-83
2022/06/26 08:24:11;;;;;;;1.45;1.30;;;;;;;;;;5079343;28;20196;-85
2022/06/26 08:26:38;;;;;;;1.20;1.20;;;;;;;;;;5084689;28;20248;-85
2022/06/26 08:29:07;;;;;;;1.60;1.50;;;;;;;;;;5082037;28;20258;-84
2022/06/26 08:31:34;;;;;;;1.60;1.50;;;;;;;;;;5078034;28;20247;-86
2022/06/26 08:34:02;;;;;;;1.40;1.30;;;;;;;;;;5081601;28;20263;-85
2022/06/26 08:36:30;;;;;;;2.03;1.92;;;;;;;;;;5072312;28;20866;-85
2022/06/26 08:38:57;;;;;;;1.60;1.60;;;;;;;;;;5073443;28;20843;-86
2022/06/26 08:41:30;;;;;;;1.30;1.30;;;;;;;;;;5073505;28;20288;-86
2022/06/26 08:43:59;;;;;;;1.20;1.20;;;;;;;;;;5072695;28;20205;-86
2022/06/26 08:46:30;;;;;;;1.40;1.40;;;;;;;;;;5072795;28;20255;-84
2022/06/26 08:48:59;;;;;;;1.73;1.65;;;;;;;;;;5074077;28;20225;-84
2022/06/26 08:51:26;;;;;;;1.60;1.50;;;;;;;;;;5075664;28;20296;-85
2022/06/26 08:53:54;;;;;;;1.75;1.65;;;;;;;;;;5074873;28;20308;-84
2022/06/26 08:56:22;;;;;;;1.50;1.40;;;;;;;;;;5075705;28;20228;-84
2022/06/26 08:58:49;;;;;;;1.95;1.85;;;;;;;;;;5075813;28;20288;-86
2022/06/26 09:01:17;;;;;;;1.60;1.50;;;;;;;;;;5075184;28;20236;-86
2022/06/26 09:03:46;;;;;;;1.50;1.40;;;;;;;;;;5075703;28;20220;-85
2022/06/26 09:06:13;;;;;;;1.73;1.63;;;;;;;;;;5076421;28;20708;-86
2022/06/26 09:08:45;;;;;;;1.75;1.70;;;;;;;;;;5074170;28;20211;-86
2022/06/26 09:11:13;;;;;;;1.88;1.77;;;;;;;;;;5073870;28;20201;-86
2022/06/26 09:13:42;;;;;;;1.70;1.60;;;;;;;;;;5073073;28;20670;-86
2022/06/26 09:16:10;;;;;;;1.70;1.60;;;;;;;;;;5074267;28;20292;-86
2022/06/26 09:18:40;;;;;;;1.80;1.70;;;;;;;;;;5074774;28;20291;-86
2022/06/26 09:21:10;;;;;;;1.63;1.52;;;;;;;;;;5074248;28;20300;-85
2022/06/26 09:23:39;;;;;;;1.70;1.60;;;;;;;;;;5073555;28;20201;-86
2022/06/26 09:26:07;;;;;;;2.40;1.70;;;;;;;;;;5075427;28;20288;-85
2022/06/26 09:28:35;;;;;;;1.90;1.80;;;;;;;;;;5075633;28;20232;-84
2022/06/26 09:31:06;;;;;;;1.55;1.45;;;;;;;;;;5076719;28;20213;-85
2022/06/26 09:33:36;;;;;;;1.60;1.50;;;;;;;;;;5076004;28;20217;-86
2022/06/26 09:36:06;;;;;;;1.58;1.48;;;;;;;;;;5076416;28;20590;-85
2022/06/26 09:38:36;;;;;;;1.77;1.67;;;;;;;;;;5075801;28;20263;-85
2022/06/26 09:41:06;;;;;;;1.80;1.70;;;;;;;;;;5075893;28;20237;-84
2022/06/26 09:43:36;;;;;;;1.98;1.88;;;;;;;;;;5075053;28;20295;-86
2022/06/26 09:46:05;;;;;;;1.75;1.65;;;;;;;;;;5074642;28;20293;-85
2022/06/26 09:48:34;;;;;;;1.85;1.70;;;;;;;;;;5076103;28;20295;-86
2022/06/26 09:51:02;;;;;;;2.00;1.90;;;;;;;;;;5076564;28;20236;-85
2022/06/26 09:53:31;;;;;;;1.90;1.58;;;;;;;;;;5076466;28;20221;-86
2022/06/26 09:56:01;;;;;;;1.92;1.83;;;;;;;;;;5076969;28;20212;-86
2022/06/26 09:58:31;;;;;;;2.15;2.05;;;;;;;;;;5077382;28;20208;-86
2022/06/26 10:06:33;;;;;;;2.03;1.92;;;;;;;;;;5078552;28;20216;-86
2022/06/26 10:09:03;;;;;;;1.73;1.63;;;;;;;;;;5077011;28;20291;-84
2022/06/26 10:11:34;;;;;;;1.65;1.55;;;;;;;;;;5077998;28;20292;-85
2022/06/26 10:14:04;;;;;;;1.80;1.70;;;;;;;;;;5078484;28;20747;-86
2022/06/26 10:17:01;;;;;;;1.95;1.85;;;;;;;;;;5079081;28;20217;-84
2022/06/26 10:19:35;;;;;;;1.30;1.30;;;;;;;;;;5078398;28;20201;-86
2022/06/26 10:22:03;;;;;;;1.50;1.50;;;;;;;;;;5070568;28;20212;-86
2022/06/26 10:24:32;;;;;;;1.75;1.65;;;;;;;;;;5060454;28;20682;-85
2022/06/26 10:27:03;;;;;;;1.95;1.85;;;;;;;;;;5061489;28;20226;-85
2022/06/26 10:29:37;;;;;;;2.13;2.00;;;;;;;;;;5062537;28;20232;-86
2022/06/26 10:32:06;;;;;;;1.60;1.50;;;;;;;;;;5061421;28;20244;-84
2022/06/26 10:34:35;;;;;;;1.90;1.80;;;;;;;;;;5061192;28;20222;-86
2022/06/26 10:37:05;;;;;;;1.50;1.50;;;;;;;;;;5062188;28;20260;-84
2022/06/26 10:39:46;;;;;;;1.65;1.55;;;;;;;;;;5061813;28;20660;-85
2022/06/26 10:45:11;;;;;;;2.08;1.98;;;;;;;;;;5062234;28;20196;-86
2022/06/26 10:47:46;;;;;;;1.58;1.48;;;;;;;;;;5059577;28;20241;-86
2022/06/26 10:50:29;;;;;;;1.77;1.67;;;;;;;;;;5060568;28;20236;-86
2022/06/26 10:53:17;;;;;;;1.33;1.33;;;;;;;;;;5076424;28;20237;-87
2022/06/26 10:55:49;;;;;;;1.50;1.50;;;;;;;;;;5078977;28;20249;-86
2022/06/26 10:58:28;;;;;;;1.83;1.73;;;;;;;;;;5078685;28;20225;-86
2022/06/26 11:00:58;;;;;;;1.52;1.50;;;;;;;;;;5080120;28;20236;-86
2022/06/26 11:03:26;;;;;;;1.80;1.70;;;;;;;;;;5078625;28;20204;-86
2022/06/26 11:05:57;;;;;;;1.60;1.50;;;;;;;;;;5078708;28;20371;-86
2022/06/26 11:08:31;;;;;;;2.38;1.80;;;;;;;;;;5079746;28;20316;-86
2022/06/26 11:11:04;;;;;;;1.85;1.75;;;;;;;;;;5076408;28;20649;-85
2022/06/26 11:13:35;;;;;;;1.60;1.58;;;;;;;;;;5077806;28;20212;-86
2022/06/26 11:16:04;;;;;;;1.55;1.45;;;;;;;;;;5079462;28;20226;-86
2022/06/26 11:18:36;;;;;;;1.60;1.50;;;;;;;;;;5078133;28;20232;-85
2022/06/26 11:21:04;;;;;;;1.98;1.80;;;;;;;;;;5078890;28;20229;-85
2022/06/26 11:23:34;;;;;;;1.58;1.48;;;;;;;;;;5078216;28;20232;-86
2022/06/26 11:26:04;;;;;;;1.38;1.33;;;;;;;;;;5083426;28;20196;-86
2022/06/26 11:28:35;;;;;;;1.52;1.50;;;;;;;;;;5082989;28;20228;-86
2022/06/26 11:31:04;;;;;;;1.80;1.70;;;;;;;;;;5080803;28;21116;-85
2022/06/26 11:33:34;;;;;;;1.30;1.30;;;;;;;;;;5082461;28;20221;-85
2022/06/26 11:36:07;;;;;;;1.67;1.58;;;;;;;;;;5080872;28;20244;-85
2022/06/26 11:38:35;;;;;;;1.60;1.50;;;;;;;;;;5080195;28;20265;-85
2022/06/26 11:41:06;;;;;;;1.80;1.70;;;;;;;;;;5078533;28;20207;-85
2022/06/26 11:43:36;;;;;;;1.73;1.63;;;;;;;;;;5077678;28;20193;-86
2022/06/26 11:46:05;;;;;;;1.67;1.60;;;;;;;;;;5079645;28;20261;-85
2022/06/26 11:48:33;;;;;;;1.75;1.65;;;;;;;;;;5078805;28;20208;-85
2022/06/26 11:51:00;;;;;;;1.73;1.63;;;;;;;;;;5078439;28;20590;-85
2022/06/26 11:53:30;;;;;;;1.40;1.38;;;;;;;;;;5077599;28;20261;-86
2022/06/26 11:56:19;;;;;;;1.63;1.52;;;;;;;;;;5078853;28;20232;-84
2022/06/26 11:58:51;;;;;;;2.33;1.70;;;;;;;;;;5079921;28;20208;-86
2022/06/26 12:01:21;;;;;;;1.88;1.77;;;;;;;;;;5082583;28;20314;-85
2022/06/26 12:03:57;;;;;;;1.73;1.63;;;;;;;;;;5082726;28;20200;-86
2022/06/26 12:06:33;;;;;;;1.90;1.80;;;;;;;;;;5089492;28;20220;-85
2022/06/26 12:09:02;;;;;;;1.65;1.55;;;;;;;;;;5089230;28;20201;-85
2022/06/26 12:11:31;;;;;;;1.70;1.60;;;;;;;;;;5084117;28;20201;-86
2022/06/26 12:14:04;;;;;;;1.23;1.23;;;;;;;;;;5079763;28;20200;-85
2022/06/26 12:16:31;;;;;;;1.70;1.60;;;;;;;;;;5079637;28;20249;-85
2022/06/26 12:18:59;;;;;;;1.55;1.45;;;;;;;;;;5081511;28;20212;-84
2022/06/26 12:21:27;;;;;;;1.70;1.60;;;;;;;;;;5083872;28;20231;-84
2022/06/26 12:23:55;;;;;;;1.75;1.65;;;;;;;;;;5082124;28;20197;-84
2022/06/26 12:26:23;;;;;;;1.98;1.88;;;;;;;;;;5082288;28;20200;-83
2022/06/26 12:28:58;;;;;;;1.67;1.58;;;;;;;;;;5084540;28;20203;-85
2022/06/26 12:31:27;;;;;;;2.00;1.80;;;;;;;;;;5084350;28;20235;-85
2022/06/26 12:33:55;;;;;;;1.38;1.38;;;;;;;;;;5080141;28;20265;-85
2022/06/26 12:36:23;;;;;;;1.10;1.10;;;;;;;;;;5078543;28;20217;-85
2022/06/26 12:38:50;;;;;;;1.75;1.65;;;;;;;;;;5076637;28;20232;-84
2022/06/26 12:41:18;;;;;;;1.63;1.52;;;;;;;;;;5073314;28;20638;-86
2022/06/26 12:43:48;;;;;;;1.70;1.60;;;;;;;;;;5072535;28;20284;-84
2022/06/26 12:46:15;;;;;;;1.77;1.65;;;;;;;;;;5076125;28;20264;-85
2022/06/26 12:48:44;;;;;;;1.42;1.42;;;;;;;;;;5079996;28;20205;-86
2022/06/26 12:51:12;;;;;;;1.58;1.48;;;;;;;;;;5078692;28;20280;-84
2022/06/26 12:53:40;;;;;;;1.70;1.60;;;;;;;;;;5076657;28;20673;-85
2022/06/26 12:56:08;;;;;;;1.25;1.25;;;;;;;;;;5078368;28;20292;-87
2022/06/26 12:58:36;;;;;;;1.60;1.50;;;;;;;;;;5079392;28;20673;-87
2022/06/26 13:01:03;;;;;;;1.30;1.30;;;;;;;;;;5080888;28;20212;-85
2022/06/26 13:03:32;;;;;;;1.52;1.50;;;;;;;;;;5079940;28;20292;-86
2022/06/26 13:06:01;;;;;;;1.67;1.58;;;;;;;;;;5080205;28;20256;-86
2022/06/26 13:08:29;;;;;;;1.40;1.40;;;;;;;;;;5079695;28;20256;-86
2022/06/26 13:11:22;;;;;;;1.50;1.45;;;;;;;;;;5080324;28;20205;-87
2022/06/26 13:13:44;;;;;;;1.58;1.48;;;;;;;;;;5079947;28;20197;-86
2022/06/26 13:16:12;;;;;;;1.50;1.50;;;;;;;;;;5079720;28;20316;-86
2022/06/26 13:18:40;;;;;;;1.33;1.33;;;;;;;;;;5080567;28;20296;-87
2022/06/26 13:21:10;;;;;;;1.35;1.35;;;;;;;;;;5079991;28;20232;-86
2022/06/26 13:23:38;;;;;;;1.05;1.00;;;;;;;;;;5080978;28;20300;-85
2022/06/26 13:26:05;;;;;;;1.00;1.00;;;;;;;;;;5081020;28;20725;-85
2022/06/26 13:28:34;;;;;;;1.10;1.10;;;;;;;;;;5082302;28;20229;-85
2022/06/26 13:31:03;;;;;;;1.13;1.13;;;;;;;;;;5081223;28;20201;-85
2022/06/26 13:33:30;;;;;;;1.10;1.10;;;;;;;;;;5078978;28;20239;-85
2022/06/26 13:36:00;;;;;;;1.15;1.15;;;;;;;;;;5081991;28;20815;-85
2022/06/26 13:38:29;;;;;;;1.65;1.55;;;;;;;;;;5076015;23;20287;-85
2022/06/26 13:40:57;;;;;;;1.10;1.10;;;;;;;;;;5058466;28;20259;-85
2022/06/26 13:43:25;;;;;;;1.15;1.15;;;;;;;;;;5058827;28;20201;-86
2022/06/26 13:45:52;;;;;;;1.40;1.40;;;;;;;;;;5068310;28;20201;-86
2022/06/26 13:48:21;;;;;;;1.05;1.05;;;;;;;;;;5077820;28;20791;-86
2022/06/26 13:50:48;;;;;;;1.05;1.05;;;;;;;;;;5079522;28;20205;-86
2022/06/26 13:53:16;;;;;;;1.10;1.10;;;;;;;;;;5079004;28;20699;-86
2022/06/26 13:55:45;;;;;;;0.90;0.90;;;;;;;;;;5072242;28;20189;-86
2022/06/26 13:58:12;;;;;;;1.00;1.00;;;;;;;;;;5058681;28;20237;-86
2022/06/26 14:00:40;;;;;;;1.40;1.30;;;;;;;;;;5059349;28;20232;-85
2022/06/26 14:03:07;;;;;;;1.00;1.00;;;;;;;;;;5059638;28;20296;-86
2022/06/26 14:05:35;;;;;;;1.60;1.50;;;;;;;;;;5060029;28;20288;-85
2022/06/26 14:08:03;;;;;;;1.00;1.00;;;;;;;;;;5075119;28;20266;-85
2022/06/26 14:10:30;;;;;;;1.10;1.10;;;;;;;;;;5071152;28;20234;-84
2022/06/26 14:13:00;;;;;;;0.60;0.60;;;;;;;;;;5057318;28;20229;-86
2022/06/26 14:15:27;;;;;;;0.70;0.70;;;;;;;;;;5057991;28;20264;-85
2022/06/26 14:17:55;;;;;;;1.17;0.95;;;;;;;;;;5057318;28;20309;-86
2022/06/26 14:20:23;;;;;;;0.90;0.90;;;;;;;;;;5057384;28;20628;-86
2022/06/26 14:28:22;;;;;;;0.95;0.95;;;;;;;;;;5077019;28;20662;-85
2022/06/26 14:30:49;;;;;;;0.80;0.80;;;;;;;;;;5078915;28;20239;-85
2022/06/26 14:33:17;;;;;;;1.23;1.23;;;;;;;;;;5077224;28;20648;-84
2022/06/26 14:35:45;;;;;;;1.13;1.13;;;;;;;;;;5077133;28;20261;-86
2022/06/26 14:38:14;;;;;;;1.10;1.10;;;;;;;;;;5076676;28;20274;-86
2022/06/26 14:40:41;;;;;;;0.88;0.88;;;;;;;;;;5079759;28;20296;-86
2022/06/26 14:43:09;;;;;;;0.90;0.90;;;;;;;;;;5078514;28;20295;-85
2022/06/26 14:45:38;;;;;;;0.90;0.90;;;;;;;;;;5078993;28;20208;-85
2022/06/26 14:48:07;;;;;;;0.80;0.80;;;;;;;;;;5079083;28;20233;-86
2022/06/26 14:50:35;;;;;;;0.70;0.70;;;;;;;;;;5078139;28;20197;-85
2022/06/26 14:53:02;;;;;;;0.70;0.70;;;;;;;;;;5077272;28;20257;-85
2022/06/26 14:55:30;;;;;;;0.90;0.90;;;;;;;;;;5077260;28;20288;-85
2022/06/26 14:57:58;;;;;;;1.17;1.17;;;;;;;;;;5077967;28;20277;-86
2022/06/26 15:00:26;;;;;;;1.23;1.23;;;;;;;;;;5078208;28;20204;-85
2022/06/26 15:02:55;;;;;;;1.05;1.05;;;;;;;;;;5075202;28;20349;-86
2022/06/26 15:05:22;;;;;;;1.67;1.60;;;;;;;;;;5074123;28;20213;-86
2022/06/26 15:07:50;;;;;;;1.20;1.20;;;;;;;;;;5073796;28;20258;-86
2022/06/26 15:10:18;;;;;;;1.40;1.30;;;;;;;;;;5074263;28;20670;-86
2022/06/26 15:12:46;;;;;;;1.85;1.75;;;;;;;;;;5074127;28;20307;-85
2022/06/26 15:15:16;;;;;;;1.83;1.73;;;;;;;;;;5073559;28;20232;-86
2022/06/26 15:17:43;;;;;;;1.90;1.80;;;;;;;;;;5074193;28;20271;-85